Time;durP1;ratioP1;P1;durP2;ratioP2;P2;SDS_P1;SDS_P2;PMS_P1;PMS_P2;Temp;Humidity;BMP_temperature;BMP_pressure;BME280_temperature;BME280_humidity;BME280_pressure;Samples;Min_cycle;Max_cycle;Signal;HPM_P1;HPM_P2
2024/03/19 15:53:53;;;;;;;5.97;3.17;;;;;;;7.98;41.24;93654.69;5003641;28;20049;-79
2024/03/19 15:56:18;;;;;;;5.68;2.92;;;;;;;7.92;42.63;93663.84;5003907;28;20313;-79
2024/03/19 15:58:44;;;;;;;9.20;3.40;;;;;;;7.84;43.13;93670.66;5004068;28;20033;-79
2024/03/19 16:01:09;;;;;;;11.20;3.95;;;;;;;7.81;44.69;93654.53;5003990;28;20028;-79
2024/03/19 16:03:34;;;;;;;11.35;3.00;;;;;;;7.76;43.33;93667.94;5004077;28;20018;-79
2024/03/19 16:06:00;;;;;;;10.40;4.57;;;;;;;7.70;44.62;93663.81;5003626;28;20024;-79
2024/03/19 16:08:25;;;;;;;17.85;3.60;;;;;;;7.71;44.26;93671.47;5004128;28;20049;-79
2024/03/19 16:10:52;;;;;;;11.63;4.65;;;;;;;7.70;43.20;93669.91;5018981;28;20022;-79
2024/03/19 16:13:17;;;;;;;7.88;2.90;;;;;;;7.67;44.59;93681.09;5003934;28;20018;-79
2024/03/19 16:15:43;;;;;;;9.90;3.67;;;;;;;7.60;44.30;93681.53;5004098;28;20034;-79
2024/03/19 16:18:12;;;;;;;17.33;3.50;;;;;;;7.49;44.35;93680.19;5003863;28;20030;-79
2024/03/19 16:20:40;;;;;;;9.32;3.30;;;;;;;7.32;44.84;93686.06;5003773;28;20022;-80
2024/03/19 16:23:06;;;;;;;11.82;3.88;;;;;;;7.34;45.09;93696.38;5004076;28;20026;-80
2024/03/19 16:25:31;;;;;;;11.75;2.80;;;;;;;7.39;45.36;93685.69;5003747;28;20256;-79
2024/03/19 16:27:56;;;;;;;8.38;3.20;;;;;;;7.47;45.51;93702.75;5003721;28;20024;-79
2024/03/19 16:30:22;;;;;;;10.05;3.05;;;;;;;7.55;45.98;93704.72;5003733;28;20309;-78
2024/03/19 16:32:47;;;;;;;7.32;2.97;;;;;;;7.57;45.39;93703.34;5003567;28;20018;-79
2024/03/19 16:35:13;;;;;;;7.65;3.08;;;;;;;7.56;44.18;93701.75;5003370;28;20325;-80
2024/03/19 16:37:39;;;;;;;7.60;3.53;;;;;;;7.61;45.29;93704.31;5002524;28;20093;-79
2024/03/19 16:40:06;;;;;;;18.42;3.17;;;;;;;7.62;45.28;93715.72;5003457;28;20029;-80
2024/03/19 16:42:31;;;;;;;11.07;2.78;;;;;;;7.59;44.58;93732.22;5003093;28;20026;-79
2024/03/19 16:44:58;;;;;;;9.32;3.13;;;;;;;7.59;44.75;93730.34;5003320;28;20037;-71
2024/03/19 16:47:24;;;;;;;10.40;2.75;;;;;;;7.56;45.25;93727.50;5002894;28;20022;-71
2024/03/19 16:49:49;;;;;;;8.27;2.60;;;;;;;7.60;45.44;93737.22;5002999;28;20029;-71
2024/03/19 16:52:15;;;;;;;6.78;2.50;;;;;;;7.62;46.19;93740.38;5002831;28;20081;-75
2024/03/19 16:54:40;;;;;;;7.35;2.67;;;;;;;7.68;46.76;93749.00;5001724;28;20336;-75
2024/03/19 16:57:06;;;;;;;10.38;2.83;;;;;;;7.64;46.92;93748.03;5018310;28;20076;-75
2024/03/19 16:59:31;;;;;;;6.38;2.53;;;;;;;7.63;46.14;93754.41;5003221;28;20100;-75
2024/03/19 17:01:56;;;;;;;8.48;3.30;;;;;;;7.60;45.96;93758.44;5003083;28;20034;-75
2024/03/19 17:04:22;;;;;;;7.25;2.92;;;;;;;7.38;43.10;93764.44;5003230;28;20027;-74
2024/03/19 17:06:50;;;;;;;6.57;3.30;;;;;;;7.26;45.32;93763.38;5003036;28;20251;-75
2024/03/19 17:09:18;;;;;;;11.85;3.60;;;;;;;7.11;44.34;93767.09;5003036;28;20030;-75
2024/03/19 17:11:43;;;;;;;5.65;3.10;;;;;;;6.96;42.97;93774.25;5002858;28;20225;-75
2024/03/19 17:14:14;;;;;;;10.63;2.80;;;;;;;6.79;43.58;93779.28;5003067;28;20066;-73
2024/03/19 17:16:41;;;;;;;9.00;3.50;;;;;;;6.58;44.34;93781.50;5002872;28;20026;-73
2024/03/19 17:19:07;;;;;;;8.05;3.42;;;;;;;6.44;44.08;93794.69;5002881;28;20138;-73
2024/03/19 17:21:33;;;;;;;10.85;3.17;;;;;;;6.31;43.28;93796.19;5002197;28;20181;-73
2024/03/19 17:23:58;;;;;;;6.45;2.88;;;;;;;6.21;44.37;93805.06;5002707;28;20220;-73
2024/03/19 17:26:23;;;;;;;9.70;3.65;;;;;;;6.11;44.77;93817.66;5002768;28;20033;-73
2024/03/19 17:28:49;;;;;;;8.43;3.30;;;;;;;5.98;44.10;93790.84;5002840;28;20026;-73
2024/03/19 17:31:14;;;;;;;5.50;2.75;;;;;;;5.93;44.43;93819.19;5002730;28;20094;-73
2024/03/19 17:33:39;;;;;;;6.82;2.95;;;;;;;5.92;45.13;93809.66;5002768;28;20026;-73
2024/03/19 17:36:06;;;;;;;7.32;3.38;;;;;;;5.86;44.73;93805.50;5002979;28;20190;-73
2024/03/19 17:38:31;;;;;;;5.22;3.17;;;;;;;5.82;44.82;93813.22;5002668;28;20282;-82
2024/03/19 17:40:57;;;;;;;5.80;3.33;;;;;;;5.71;45.12;93825.78;5017899;28;20018;-82
2024/03/19 17:43:22;;;;;;;9.40;3.92;;;;;;;5.72;45.39;93831.84;5003146;28;20022;-82
2024/03/19 17:45:48;;;;;;;6.65;3.10;;;;;;;5.72;44.72;93831.84;5002910;28;20092;-83
2024/03/19 17:48:14;;;;;;;7.28;2.90;;;;;;;5.69;44.64;93832.44;5002557;28;20339;-83
2024/03/19 17:50:42;;;;;;;4.93;2.72;;;;;;;5.55;44.29;93832.31;5020868;28;20045;-82
2024/03/19 17:53:08;;;;;;;5.63;2.72;;;;;;;5.43;44.92;93844.09;5006101;28;20236;-83
2024/03/19 17:55:33;;;;;;;6.53;2.67;;;;;;;5.44;45.02;93842.22;5006168;28;20022;-83
2024/03/19 17:57:58;;;;;;;6.13;2.95;;;;;;;5.39;44.58;93839.63;5006093;28;20032;-83
2024/03/19 18:00:24;;;;;;;5.55;2.80;;;;;;;5.35;45.83;93850.00;5006128;28;20272;-83
2024/03/19 18:02:50;;;;;;;5.43;2.60;;;;;;;5.20;45.17;93850.13;5004925;28;20328;-83
2024/03/19 18:05:15;;;;;;;8.52;2.60;;;;;;;5.17;45.95;93864.69;5021530;28;20313;-83
2024/03/19 18:07:44;;;;;;;9.63;3.30;;;;;;;5.13;46.59;93878.72;5005002;28;20026;-82
2024/03/19 18:10:11;;;;;;;5.93;2.72;;;;;;;5.09;46.23;93875.06;5005949;28;20049;-82
2024/03/19 18:12:43;;;;;;;10.68;2.88;;;;;;;5.02;45.76;93899.94;5006087;28;20033;-83
2024/03/19 18:15:14;;;;;;;;;;;;;;;5.01;46.82;93885.16;5005007;28;20038;-83
2024/03/19 18:17:39;;;;;;;10.13;3.05;;;;;;;5.01;47.56;93903.66;5006241;28;20136;-83
2024/03/19 18:20:10;;;;;;;5.40;2.78;;;;;;;4.94;46.89;93897.88;5005773;28;20057;-82
2024/03/19 18:22:40;;;;;;;7.50;2.47;;;;;;;4.89;46.66;93905.09;5005982;28;20026;-82
2024/03/19 18:25:07;;;;;;;6.20;2.67;;;;;;;4.87;46.98;93908.00;5005686;28;20112;-82
2024/03/19 18:27:33;;;;;;;5.15;2.78;;;;;;;4.78;47.41;93912.28;5005691;28;20022;-82
2024/03/19 18:30:00;;;;;;;7.57;2.50;;;;;;;4.83;47.53;93920.19;5005727;28;20072;-83
2024/03/19 18:32:28;;;;;;;8.68;2.90;;;;;;;4.80;47.70;93918.06;5005365;28;20019;-82
2024/03/19 18:34:54;;;;;;;8.07;2.92;;;;;;;4.70;47.56;93944.53;5005756;28;20042;-83
2024/03/19 18:37:19;;;;;;;7.20;2.78;;;;;;;4.56;47.17;93929.31;5020544;28;20316;-83
2024/03/19 18:39:45;;;;;;;7.07;2.80;;;;;;;4.54;47.72;93930.63;5005232;28;20030;-83
2024/03/19 18:42:10;;;;;;;4.88;2.67;;;;;;;4.49;47.69;93939.38;5005123;28;20030;-83
2024/03/19 18:44:38;;;;;;;5.90;2.95;;;;;;;4.37;47.96;93941.56;5004805;28;20026;-82
2024/03/19 18:47:05;;;;;;;4.35;2.33;;;;;;;4.16;47.73;93931.09;5005075;28;20285;-82
2024/03/19 18:49:31;;;;;;;7.25;2.42;;;;;;;4.12;47.82;93942.47;5004976;28;20045;-83
2024/03/19 18:51:57;;;;;;;5.43;3.22;;;;;;;4.12;48.35;93956.44;5004990;28;20034;-83
2024/03/19 18:54:22;;;;;;;6.40;2.28;;;;;;;4.04;48.44;93962.28;5004614;28;20081;-82
2024/03/19 18:56:47;;;;;;;8.32;2.40;;;;;;;3.96;48.35;93947.00;5004678;28;20023;-82
2024/03/19 18:59:13;;;;;;;7.03;2.00;;;;;;;3.86;48.14;93963.66;5004945;28;20101;-81
2024/03/19 19:01:39;;;;;;;5.20;3.08;;;;;;;3.86;47.86;93953.09;5003917;28;20038;-82
2024/03/19 19:04:04;;;;;;;13.20;2.72;;;;;;;3.81;48.21;93956.53;5004801;28;20037;-82
2024/03/19 19:06:30;;;;;;;8.00;2.83;;;;;;;3.72;48.68;93973.97;5003437;28;20019;-82
2024/03/19 19:08:56;;;;;;;8.55;2.85;;;;;;;3.72;49.22;93973.19;5005270;28;20294;-82
2024/03/19 19:11:21;;;;;;;4.82;2.40;;;;;;;3.71;48.93;93972.41;5004905;28;20029;-83
2024/03/19 19:13:47;;;;;;;9.05;3.00;;;;;;;3.66;48.22;93968.97;5004782;28;20022;-82
2024/03/19 19:16:12;;;;;;;5.18;2.13;;;;;;;3.59;48.07;93977.16;5004499;28;20056;-81
2024/03/19 19:18:38;;;;;;;7.57;2.80;;;;;;;3.59;48.14;93985.06;5003470;28;20022;-83
2024/03/19 19:21:05;;;;;;;5.00;2.78;;;;;;;3.60;48.72;93989.25;5004461;28;20029;-81
2024/03/19 19:23:33;;;;;;;5.82;2.42;;;;;;;3.59;48.13;93990.34;5004579;28;20022;-81
2024/03/19 19:26:00;;;;;;;5.68;2.50;;;;;;;3.56;48.82;93991.66;5004315;28;20030;-81
2024/03/19 19:28:26;;;;;;;5.20;2.45;;;;;;;3.60;48.66;93991.91;5004172;28;20033;-83
2024/03/19 19:30:52;;;;;;;7.63;3.10;;;;;;;3.63;48.94;93995.88;5004356;28;20093;-83
2024/03/19 19:33:17;;;;;;;7.38;2.72;;;;;;;3.55;48.12;93995.34;5004359;28;20022;-82
2024/03/19 19:35:43;;;;;;;4.15;2.50;;;;;;;3.53;48.23;94010.63;5004352;28;20018;-82
2024/03/19 19:38:11;;;;;;;4.93;2.50;;;;;;;3.46;47.79;94012.75;5003106;28;20316;-82
2024/03/19 19:40:43;;;;;;;5.68;2.53;;;;;;;3.46;48.24;94010.13;5003338;28;20018;-82
2024/03/19 19:43:12;;;;;;;6.28;2.30;;;;;;;3.34;47.66;94015.66;5004469;28;20033;-82
2024/03/19 19:45:37;;;;;;;5.88;2.65;;;;;;;3.27;47.79;94015.09;5004023;28;20282;-83
2024/03/19 19:48:03;;;;;;;10.95;3.03;;;;;;;3.30;48.09;94019.88;5003919;28;20030;-82
2024/03/19 19:50:28;;;;;;;7.78;2.45;;;;;;;3.31;48.35;94018.00;5019399;28;20038;-82
2024/03/19 19:52:53;;;;;;;5.65;2.35;;;;;;;3.38;47.82;94019.34;5003900;28;20026;-81
2024/03/19 19:55:19;;;;;;;10.43;2.55;;;;;;;3.39;48.10;94023.53;5003933;28;20031;-82
2024/03/19 19:57:44;;;;;;;4.57;2.67;;;;;;;3.41;47.71;94020.66;5004109;28;20022;-82
2024/03/19 20:00:17;;;;;;;5.75;2.88;;;;;;;3.43;47.85;94029.09;5003305;28;20034;-84
2024/03/19 20:02:43;;;;;;;8.70;2.30;;;;;;;3.39;47.98;94033.28;5002564;28;20371;-78
2024/03/19 20:05:09;;;;;;;5.18;2.30;;;;;;;3.29;47.17;94034.06;5003835;28;20022;-78
2024/03/19 20:07:34;;;;;;;4.53;2.30;;;;;;;3.32;47.87;94036.19;5003674;28;20097;-78
2024/03/19 20:10:00;;;;;;;7.90;2.33;;;;;;;3.26;46.60;94057.50;5003540;28;20034;-78
2024/03/19 20:12:25;;;;;;;5.40;2.42;;;;;;;3.16;46.94;94037.25;5003937;28;20018;-78
2024/03/19 20:14:51;;;;;;;11.80;2.67;;;;;;;3.19;47.82;94045.38;5003743;28;20025;-78
2024/03/19 20:17:16;;;;;;;5.18;2.47;;;;;;;3.26;48.27;94037.25;5003570;28;20217;-78
2024/03/19 20:19:42;;;;;;;4.97;2.58;;;;;;;3.22;47.41;94044.88;5003694;28;20042;-78
2024/03/19 20:22:07;;;;;;;6.70;3.03;;;;;;;3.18;47.89;94037.78;5002769;28;20053;-78
2024/03/19 20:24:33;;;;;;;3.90;2.35;;;;;;;3.04;47.71;94040.13;5003760;28;20038;-78
2024/03/19 20:26:58;;;;;;;3.75;2.30;;;;;;;3.00;47.16;94039.84;5003659;28;20236;-78
2024/03/19 20:29:24;;;;;;;6.68;2.45;;;;;;;2.95;47.78;94050.38;5003483;28;20122;-78
2024/03/19 20:31:50;;;;;;;4.20;2.60;;;;;;;2.95;47.41;94047.75;5018667;28;20305;-77
2024/03/19 20:34:17;;;;;;;5.43;2.45;;;;;;;2.89;47.54;94033.00;5002667;28;20036;-78
2024/03/19 20:36:42;;;;;;;5.57;2.92;;;;;;;2.88;48.11;94041.16;5003903;28;20097;-78
2024/03/19 20:39:14;;;;;;;7.95;2.97;;;;;;;2.74;47.45;94040.84;5003639;28;20352;-77
2024/03/19 20:41:40;;;;;;;8.15;2.88;;;;;;;2.65;47.62;94045.03;5003882;28;20221;-78
2024/03/19 20:44:05;;;;;;;4.38;2.40;;;;;;;2.52;47.66;94054.19;5003389;28;20110;-77
2024/03/19 20:46:32;;;;;;;7.80;2.90;;;;;;;2.46;47.67;94049.94;5003539;28;20257;-77
2024/03/19 20:48:58;;;;;;;8.02;2.50;;;;;;;2.38;48.13;94070.47;5002296;28;20058;-77
2024/03/19 20:51:27;;;;;;;5.35;2.60;;;;;;;2.32;47.67;94073.28;5003371;28;20032;-78
2024/03/19 20:53:53;;;;;;;10.13;2.22;;;;;;;2.33;48.68;94074.91;5003282;28;20049;-78
2024/03/19 20:56:20;;;;;;;7.07;2.58;;;;;;;2.26;47.66;94069.06;5003410;28;20022;-78
2024/03/19 20:58:45;;;;;;;7.72;2.95;;;;;;;2.15;48.54;94053.22;5003031;28;20324;-78
2024/03/19 21:01:12;;;;;;;5.15;2.78;;;;;;;2.07;48.83;94058.19;5003121;28;20046;-79
2024/03/19 21:03:37;;;;;;;8.20;2.45;;;;;;;2.07;48.94;94066.84;5003341;28;20037;-77
2024/03/19 21:06:03;;;;;;;9.25;3.17;;;;;;;1.97;48.96;94058.91;5003176;28;20022;-77
2024/03/19 21:08:30;;;;;;;5.05;2.63;;;;;;;2.01;49.40;94070.50;5003377;28;20026;-77
2024/03/19 21:10:56;;;;;;;6.72;2.92;;;;;;;1.88;49.05;94063.88;5003001;28;20022;-77
2024/03/19 21:13:25;;;;;;;4.78;2.33;;;;;;;1.77;47.83;94060.38;5003329;28;20023;-77
2024/03/19 21:15:50;;;;;;;6.78;3.28;;;;;;;1.78;49.33;94067.22;5003032;28;20037;-79
2024/03/19 21:18:18;;;;;;;8.50;2.80;;;;;;;1.74;49.38;94071.38;5018419;28;20064;-79
2024/03/19 21:20:44;;;;;;;6.95;3.28;;;;;;;1.69;48.64;94071.38;5003253;28;20022;-78
2024/03/19 21:23:09;;;;;;;9.18;3.10;;;;;;;1.63;48.13;94072.38;5002021;28;20400;-78
2024/03/19 21:25:35;;;;;;;6.57;3.33;;;;;;;1.55;48.72;94062.31;5006773;28;20034;-88
2024/03/19 21:28:01;;;;;;;4.53;2.50;;;;;;;1.50;48.83;94072.78;5008397;28;20093;-90
2024/03/19 21:30:26;;;;;;;10.18;3.20;;;;;;;1.54;49.03;94069.41;5008289;28;20033;-90
2024/03/19 21:32:52;;;;;;;7.20;3.67;;;;;;;1.50;49.30;94072.78;5023476;28;20022;-90
2024/03/19 21:35:17;;;;;;;6.82;3.55;;;;;;;1.44;49.11;94073.78;5008386;28;20040;-90
2024/03/19 21:37:42;;;;;;;7.53;3.60;;;;;;;1.40;49.86;94073.47;5008391;28;20106;-91
2024/03/19 21:40:12;;;;;;;6.93;3.30;;;;;;;1.42;49.59;94078.50;5008765;28;20367;-91
2024/03/19 21:42:41;;;;;;;5.80;3.20;;;;;;;1.33;49.86;94078.94;5023675;28;20033;-89
2024/03/19 21:45:07;;;;;;;6.13;3.00;;;;;;;1.31;49.41;94081.03;5008099;28;20041;-90
2024/03/19 21:47:33;;;;;;;9.18;3.40;;;;;;;1.30;49.85;94078.66;5007527;28;20069;-91
2024/03/19 21:49:59;;;;;;;7.63;3.50;;;;;;;1.24;49.69;94095.41;5007902;28;20026;-91
2024/03/19 21:52:27;;;;;;;6.88;3.45;;;;;;;1.19;49.30;94093.53;5007866;28;20018;-92
2024/03/19 21:54:53;;;;;;;8.70;3.38;;;;;;;1.14;49.45;94096.91;5006947;28;20328;-91
2024/03/19 21:57:18;;;;;;;7.25;3.10;;;;;;;1.16;50.24;94089.56;5008076;28;20030;-91
2024/03/19 21:59:44;;;;;;;5.20;2.55;;;;;;;1.13;50.54;94086.66;5007591;28;20022;-91
2024/03/19 22:02:16;;;;;;;8.57;3.55;;;;;;;1.10;50.14;94108.13;5006833;28;20221;-89
2024/03/19 22:04:44;;;;;;;5.07;2.97;;;;;;;1.06;51.36;94099.97;5006935;28;20324;-90
2024/03/19 22:07:10;;;;;;;4.57;2.58;;;;;;;1.06;51.39;94096.53;5006646;28;20045;-89
2024/03/19 22:09:39;;;;;;;6.65;3.30;;;;;;;0.97;50.36;94094.34;5005989;28;20034;-90
2024/03/19 22:12:11;;;;;;;8.68;3.63;;;;;;;1.07;50.32;94098.94;5004629;28;20020;-90
2024/03/19 22:14:36;;;;;;;7.53;3.22;;;;;;;1.05;51.08;94098.38;5006401;28;20266;-91
2024/03/19 22:17:03;;;;;;;8.07;3.83;;;;;;;0.98;51.50;94097.81;5022199;28;20045;-90
2024/03/19 22:19:28;;;;;;;4.90;2.55;;;;;;;1.06;51.42;94099.16;5007730;28;20026;-90
2024/03/19 22:21:56;;;;;;;6.53;3.10;;;;;;;1.02;51.47;94084.94;5007859;28;20061;-91
2024/03/19 22:24:22;;;;;;;5.82;2.75;;;;;;;1.02;51.05;94103.31;5007144;28;20113;-87
2024/03/19 22:26:47;;;;;;;5.55;3.08;;;;;;;1.02;51.19;94092.81;5005965;28;20034;-82
2024/03/19 22:29:12;;;;;;;8.23;3.20;;;;;;;0.97;51.21;94107.47;5006123;28;20026;-82
2024/03/19 22:31:38;;;;;;;7.35;2.50;;;;;;;0.91;52.13;94095.34;5005573;28;20064;-82
2024/03/19 22:34:04;;;;;;;5.28;2.70;;;;;;;0.83;51.69;94095.78;5005711;28;20026;-82
2024/03/19 22:36:29;;;;;;;5.45;3.10;;;;;;;0.85;51.77;94098.97;5004410;28;20328;-81
2024/03/19 22:39:18;;;;;;;8.15;3.38;;;;;;;0.89;52.07;94105.31;5005563;28;20019;-81
2024/03/19 22:41:45;;;;;;;8.00;3.30;;;;;;;0.80;52.03;94107.56;5005129;28;20046;-82
2024/03/19 22:44:10;;;;;;;6.55;3.42;;;;;;;0.78;52.59;94095.75;5005294;28;20165;-81
2024/03/19 22:46:35;;;;;;;5.82;3.28;;;;;;;0.75;51.94;94112.78;5005374;28;20078;-82
2024/03/19 22:49:01;;;;;;;6.85;2.97;;;;;;;0.70;52.83;94106.69;5020689;28;20101;-82
2024/03/19 22:51:27;;;;;;;6.68;3.13;;;;;;;0.71;53.02;94093.31;5005088;28;20029;-82
2024/03/19 22:53:52;;;;;;;6.18;2.95;;;;;;;0.73;52.42;94111.41;5005031;28;20278;-82
2024/03/19 22:56:18;;;;;;;6.47;2.75;;;;;;;0.73;52.62;94121.91;5005374;28;20029;-82
2024/03/19 22:58:43;;;;;;;5.47;3.17;;;;;;;0.74;52.37;94118.25;5004299;28;20061;-82
2024/03/19 23:01:09;;;;;;;5.68;3.22;;;;;;;0.75;52.15;94119.84;5005204;28;20224;-82
2024/03/19 23:03:34;;;;;;;7.75;3.33;;;;;;;0.79;52.44;94128.81;5005140;28;20033;-82
2024/03/19 23:06:01;;;;;;;6.82;3.13;;;;;;;0.86;52.95;94141.75;5005042;28;20018;-81
2024/03/19 23:08:27;;;;;;;7.13;3.40;;;;;;;0.88;52.48;94132.59;5005180;28;20292;-82
2024/03/19 23:10:52;;;;;;;5.05;2.55;;;;;;;0.84;52.74;94138.59;5005155;28;20114;-90
2024/03/19 23:13:17;;;;;;;5.38;2.88;;;;;;;0.79;52.41;94128.81;5005255;28;20025;-86
2024/03/19 23:15:43;;;;;;;6.32;2.90;;;;;;;0.75;52.93;94140.81;5005375;28;20304;-83
2024/03/19 23:18:08;;;;;;;5.68;2.53;;;;;;;0.75;52.38;94125.91;5005198;28;20033;-84
2024/03/19 23:20:34;;;;;;;6.47;2.97;;;;;;;0.80;53.15;94127.78;5005160;28;20339;-84
2024/03/19 23:22:59;;;;;;;5.70;3.10;;;;;;;0.86;52.24;94124.19;5005128;28;20033;-84
2024/03/19 23:25:29;;;;;;;5.57;2.92;;;;;;;0.88;52.49;94134.44;5004783;28;20093;-84
2024/03/19 23:27:55;;;;;;;4.97;2.40;;;;;;;0.86;52.88;94116.31;5004898;28;20110;-84
2024/03/19 23:30:22;;;;;;;5.07;2.75;;;;;;;0.83;52.37;94110.75;5004838;28;20022;-84
2024/03/19 23:32:47;;;;;;;7.38;2.92;;;;;;;0.81;52.98;94110.97;5004717;28;20332;-84
2024/03/19 23:35:13;;;;;;;7.15;2.92;;;;;;;0.78;52.01;94112.28;5004810;28;20034;-84
2024/03/19 23:37:38;;;;;;;5.25;2.55;;;;;;;0.76;52.53;94116.19;5004946;28;20022;-84
2024/03/19 23:40:04;;;;;;;4.97;2.55;;;;;;;0.78;52.47;94107.03;5004918;28;20030;-84
2024/03/19 23:42:29;;;;;;;5.00;2.90;;;;;;;0.80;52.66;94107.56;5004810;28;20385;-83
2024/03/19 23:44:54;;;;;;;6.72;2.55;;;;;;;0.74;52.21;94107.78;5019925;28;20042;-83
2024/03/19 23:47:20;;;;;;;7.18;3.15;;;;;;;0.75;52.85;94106.72;5004459;28;20232;-83
2024/03/19 23:49:47;;;;;;;5.13;2.83;;;;;;;0.70;52.20;94098.81;5004981;28;20057;-83
2024/03/19 23:52:13;;;;;;;4.95;2.65;;;;;;;0.67;52.60;94104.53;5005043;28;20102;-83
2024/03/19 23:54:39;;;;;;;7.47;3.17;;;;;;;0.66;52.00;94098.50;5020145;28;20466;-84
2024/03/19 23:57:04;;;;;;;5.03;3.13;;;;;;;0.66;52.57;94090.63;5004655;28;20046;-82
2024/03/19 23:59:29;;;;;;;9.07;2.47;;;;;;;0.61;52.33;94098.41;5004952;28;20026;-83
